sensor_id;sensor_type;location;lat;lon;timestamp;pressure;altitude;pressure_sealevel;temperature;humidity
71966;BME280;59836;52.132;5.442;2022-07-22T00:02:26;102225.97;;;16.57;85.11
71966;BME280;59836;52.132;5.442;2022-07-22T00:04:54;102229.81;;;16.56;85.00
71966;BME280;59836;52.132;5.442;2022-07-22T00:07:34;102235.03;;;16.57;85.29
71966;BME280;59836;52.132;5.442;2022-07-22T00:10:04;102238.03;;;16.56;85.35
71966;BME280;59836;52.132;5.442;2022-07-22T00:12:31;102238.88;;;16.56;85.41
71966;BME280;59836;52.132;5.442;2022-07-22T00:15:28;102238.03;;;16.50;85.22
71966;BME280;59836;52.132;5.442;2022-07-22T00:18:08;102236.13;;;16.51;85.45
71966;BME280;59836;52.132;5.442;2022-07-22T00:24:09;102238.59;;;16.52;85.37
71966;BME280;59836;52.132;5.442;2022-07-22T00:26:35;102232.31;;;16.52;84.92
71966;BME280;59836;52.132;5.442;2022-07-22T00:29:02;102232.84;;;16.49;85.55
71966;BME280;59836;52.132;5.442;2022-07-22T00:31:28;102232.00;;;16.48;85.59
71966;BME280;59836;52.132;5.442;2022-07-22T00:34:00;102230.91;;;16.49;85.21
71966;BME280;59836;52.132;5.442;2022-07-22T00:36:28;102231.47;;;16.46;85.02
71966;BME280;59836;52.132;5.442;2022-07-22T00:39:28;102227.63;;;16.47;84.82
71966;BME280;59836;52.132;5.442;2022-07-22T00:41:54;102223.25;;;16.46;84.20
71966;BME280;59836;52.132;5.442;2022-07-22T00:44:44;102221.06;;;16.48;84.59
71966;BME280;59836;52.132;5.442;2022-07-22T00:47:45;102217.22;;;16.49;84.67
71966;BME280;59836;52.132;5.442;2022-07-22T00:50:21;102227.38;;;16.49;84.27
71966;BME280;59836;52.132;5.442;2022-07-22T00:53:04;102218.88;;;16.50;84.73
71966;BME280;59836;52.132;5.442;2022-07-22T00:55:38;102215.59;;;16.48;84.75
71966;BME280;59836;52.132;5.442;2022-07-22T00:58:04;102223.00;;;16.48;84.77
71966;BME280;59836;52.132;5.442;2022-07-22T01:00:36;102219.41;;;16.47;84.60
71966;BME280;59836;52.132;5.442;2022-07-22T01:03:02;102217.78;;;16.46;84.77
71966;BME280;59836;52.132;5.442;2022-07-22T01:08:45;102209.59;;;16.41;84.55
71966;BME280;59836;52.132;5.442;2022-07-22T01:11:17;102221.09;;;16.38;84.27
71966;BME280;59836;52.132;5.442;2022-07-22T01:13:50;102221.34;;;16.42;84.66
71966;BME280;59836;52.132;5.442;2022-07-22T01:16:18;102213.69;;;16.44;85.25
71966;BME280;59836;52.132;5.442;2022-07-22T01:18:45;102216.72;;;16.42;85.66
71966;BME280;59836;52.132;5.442;2022-07-22T01:21:13;102216.44;;;16.44;85.81
71966;BME280;59836;52.132;5.442;2022-07-22T01:23:44;102220.56;;;16.41;84.99
71966;BME280;59836;52.132;5.442;2022-07-22T01:26:13;102220.56;;;16.41;84.99
71966;BME280;59836;52.132;5.442;2022-07-22T01:28:41;102211.78;;;16.39;85.02
71966;BME280;59836;52.132;5.442;2022-07-22T01:31:20;102209.31;;;16.37;85.12
71966;BME280;59836;52.132;5.442;2022-07-22T01:33:46;102211.78;;;16.39;84.98
71966;BME280;59836;52.132;5.442;2022-07-22T01:36:14;102215.63;;;16.38;85.38
71966;BME280;59836;52.132;5.442;2022-07-22T01:38:40;102212.34;;;16.36;85.26
71966;BME280;59836;52.132;5.442;2022-07-22T01:41:09;102208.75;;;16.35;85.55
71966;BME280;59836;52.132;5.442;2022-07-22T01:43:39;102212.34;;;16.36;85.53
71966;BME280;59836;52.132;5.442;2022-07-22T01:46:15;102209.59;;;16.31;85.28
71966;BME280;59836;52.132;5.442;2022-07-22T01:48:43;102204.13;;;16.31;85.53
71966;BME280;59836;52.132;5.442;2022-07-22T01:51:13;102204.69;;;16.33;85.36
71966;BME280;59836;52.132;5.442;2022-07-22T01:53:39;102206.88;;;16.31;85.05
71966;BME280;59836;52.132;5.442;2022-07-22T01:56:19;102209.59;;;16.31;85.53
71966;BME280;59836;52.132;5.442;2022-07-22T01:58:45;102212.34;;;16.31;86.00
71966;BME280;59836;52.132;5.442;2022-07-22T02:01:12;102201.94;;;16.33;86.13
71966;BME280;59836;52.132;5.442;2022-07-22T02:03:51;102208.50;;;16.32;86.38
71966;BME280;59836;52.132;5.442;2022-07-22T02:06:19;102214.78;;;16.32;86.58
71966;BME280;59836;52.132;5.442;2022-07-22T02:08:46;102207.97;;;16.30;86.24
71966;BME280;59836;52.132;5.442;2022-07-22T02:11:12;102205.78;;;16.32;86.04
71966;BME280;59836;52.132;5.442;2022-07-22T02:13:46;102207.69;;;16.31;86.28
71966;BME280;59836;52.132;5.442;2022-07-22T02:16:12;102197.00;;;16.30;86.31
71966;BME280;59836;52.132;5.442;2022-07-22T02:18:45;102199.75;;;16.30;86.10
71966;BME280;59836;52.132;5.442;2022-07-22T02:21:12;102197.00;;;16.30;86.26
71966;BME280;59836;52.132;5.442;2022-07-22T02:23:48;102198.66;;;16.31;86.17
71966;BME280;59836;52.132;5.442;2022-07-22T02:26:14;102195.91;;;16.31;85.95
71966;BME280;59836;52.132;5.442;2022-07-22T02:28:41;102191.53;;;16.30;86.50
71966;BME280;59836;52.132;5.442;2022-07-22T02:31:08;102199.47;;;16.31;86.19
71966;BME280;59836;52.132;5.442;2022-07-22T02:33:34;102187.16;;;16.29;86.39
71966;BME280;59836;52.132;5.442;2022-07-22T02:36:01;102189.91;;;16.29;86.43
71966;BME280;59836;52.132;5.442;2022-07-22T02:38:42;102189.91;;;16.29;86.21
71966;BME280;59836;52.132;5.442;2022-07-22T02:41:08;102186.06;;;16.30;86.97
71966;BME280;59836;52.132;5.442;2022-07-22T02:43:35;102185.50;;;16.33;86.79
71966;BME280;59836;52.132;5.442;2022-07-22T02:46:38;102189.06;;;16.33;86.63
71966;BME280;59836;52.132;5.442;2022-07-22T02:49:11;102187.16;;;16.34;86.07
71966;BME280;59836;52.132;5.442;2022-07-22T02:51:45;102186.31;;;16.33;86.17
71966;BME280;59836;52.132;5.442;2022-07-22T02:54:11;102186.31;;;16.33;86.08
71966;BME280;59836;52.132;5.442;2022-07-22T02:57:02;102194.28;;;16.35;86.28
71966;BME280;59836;52.132;5.442;2022-07-22T03:02:40;102186.06;;;16.35;86.69
71966;BME280;59836;52.132;5.442;2022-07-22T03:05:19;102195.38;;;16.34;86.63
71966;BME280;59836;52.132;5.442;2022-07-22T03:07:45;102197.28;;;16.33;86.87
71966;BME280;59836;52.132;5.442;2022-07-22T03:10:26;102192.09;;;16.32;86.09
71966;BME280;59836;52.132;5.442;2022-07-22T03:12:57;102195.63;;;16.32;86.14
71966;BME280;59836;52.132;5.442;2022-07-22T03:15:23;102183.88;;;16.32;86.45
71966;BME280;59836;52.132;5.442;2022-07-22T03:17:49;102194.00;;;16.31;86.23
71966;BME280;59836;52.132;5.442;2022-07-22T03:20:16;102190.44;;;16.31;85.86
71966;BME280;59836;52.132;5.442;2022-07-22T03:22:53;102197.56;;;16.32;85.77
71966;BME280;59836;52.132;5.442;2022-07-22T03:25:19;102194.00;;;16.31;85.88
71966;BME280;59836;52.132;5.442;2022-07-22T03:28:03;102194.81;;;16.32;85.54
71966;BME280;59836;52.132;5.442;2022-07-22T03:30:36;102194.00;;;16.31;86.05
71966;BME280;59836;52.132;5.442;2022-07-22T03:33:10;102197.56;;;16.32;85.88
71966;BME280;59836;52.132;5.442;2022-07-22T03:35:36;102196.72;;;16.31;86.30
71966;BME280;59836;52.132;5.442;2022-07-22T03:38:19;102196.47;;;16.33;86.26
71966;BME280;59836;52.132;5.442;2022-07-22T03:40:45;102190.44;;;16.31;85.88
71966;BME280;59836;52.132;5.442;2022-07-22T03:43:18;102196.72;;;16.31;85.91
71966;BME280;59836;52.132;5.442;2022-07-22T03:45:45;102194.00;;;16.31;86.47
71966;BME280;59836;52.132;5.442;2022-07-22T03:48:17;102193.44;;;16.29;86.41
71966;BME280;59836;52.132;5.442;2022-07-22T03:50:43;102190.69;;;16.29;86.42
71966;BME280;59836;52.132;5.442;2022-07-22T03:53:33;102189.06;;;16.28;86.06
71966;BME280;59836;52.132;5.442;2022-07-22T03:56:16;102198.66;;;16.26;85.99
71966;BME280;59836;52.132;5.442;2022-07-22T03:58:43;102198.91;;;16.24;85.93
71966;BME280;59836;52.132;5.442;2022-07-22T04:01:17;102195.38;;;16.23;86.34
71966;BME280;59836;52.132;5.442;2022-07-22T04:04:00;102189.34;;;16.21;86.03
71966;BME280;59836;52.132;5.442;2022-07-22T04:06:38;102193.72;;;16.22;85.97
71966;BME280;59836;52.132;5.442;2022-07-22T04:09:04;102188.25;;;16.22;85.66
71966;BME280;59836;52.132;5.442;2022-07-22T04:14:28;102187.72;;;16.26;85.85
71966;BME280;59836;52.132;5.442;2022-07-22T04:17:18;102181.13;;;16.27;85.86
71966;BME280;59836;52.132;5.442;2022-07-22T04:23:39;102188.25;;;16.28;86.06
71966;BME280;59836;52.132;5.442;2022-07-22T04:26:14;102185.22;;;16.29;86.40
71966;BME280;59836;52.132;5.442;2022-07-22T04:28:42;102181.94;;;16.27;86.19
71966;BME280;59836;52.132;5.442;2022-07-22T04:31:17;102191.25;;;16.31;85.90
71966;BME280;59836;52.132;5.442;2022-07-22T04:33:47;102192.34;;;16.30;85.41
71966;BME280;59836;52.132;5.442;2022-07-22T04:36:17;102183.88;;;16.32;85.83
71966;BME280;59836;52.132;5.442;2022-07-22T04:38:43;102182.78;;;16.33;85.63
71966;BME280;59836;52.132;5.442;2022-07-22T04:41:10;102176.19;;;16.34;86.12
71966;BME280;59836;52.132;5.442;2022-07-22T04:43:36;102169.88;;;16.33;86.07
71966;BME280;59836;52.132;5.442;2022-07-22T04:46:10;102173.47;;;16.34;85.27
71966;BME280;59836;52.132;5.442;2022-07-22T04:48:40;102175.13;;;16.30;85.87
71966;BME280;59836;52.132;5.442;2022-07-22T04:51:07;102175.13;;;16.30;85.67
71966;BME280;59836;52.132;5.442;2022-07-22T04:53:40;102181.38;;;16.35;85.99
71966;BME280;59836;52.132;5.442;2022-07-22T04:56:13;102180.03;;;16.38;86.24
71966;BME280;59836;52.132;5.442;2022-07-22T04:58:42;102175.38;;;16.38;85.94
71966;BME280;59836;52.132;5.442;2022-07-22T05:01:15;102171.53;;;16.40;86.62
71966;BME280;59836;52.132;5.442;2022-07-22T05:03:42;102176.19;;;16.39;85.92
71966;BME280;59836;52.132;5.442;2022-07-22T05:06:10;102172.38;;;16.40;86.17
71966;BME280;59836;52.132;5.442;2022-07-22T05:08:38;102169.03;;;16.43;86.32
71966;BME280;59836;52.132;5.442;2022-07-22T05:11:06;102169.03;;;16.43;86.72
71966;BME280;59836;52.132;5.442;2022-07-22T05:13:45;102176.69;;;16.46;86.39
71966;BME280;59836;52.132;5.442;2022-07-22T05:16:18;102170.66;;;16.49;85.57
71966;BME280;59836;52.132;5.442;2022-07-22T05:19:01;102178.34;;;16.52;85.41
71966;BME280;59836;52.132;5.442;2022-07-22T05:24:43;102178.31;;;16.58;85.54
71966;BME280;59836;52.132;5.442;2022-07-22T05:27:12;102181.06;;;16.58;84.43
71966;BME280;59836;52.132;5.442;2022-07-22T05:29:38;102182.69;;;16.59;85.08
71966;BME280;59836;52.132;5.442;2022-07-22T05:32:15;102187.63;;;16.62;86.00
71966;BME280;59836;52.132;5.442;2022-07-22T05:34:43;102186.53;;;16.63;85.77
71966;BME280;59836;52.132;5.442;2022-07-22T05:37:20;102183.78;;;16.63;85.68
71966;BME280;59836;52.132;5.442;2022-07-22T05:39:47;102188.72;;;16.66;84.67
71966;BME280;59836;52.132;5.442;2022-07-22T05:42:40;102192.00;;;16.68;85.63
71966;BME280;59836;52.132;5.442;2022-07-22T05:45:07;102195.28;;;16.70;85.30
71966;BME280;59836;52.132;5.442;2022-07-22T05:47:58;102187.34;;;16.68;85.38
71966;BME280;59836;52.132;5.442;2022-07-22T05:50:25;102186.50;;;16.68;82.80
71966;BME280;59836;52.132;5.442;2022-07-22T05:52:51;102185.72;;;16.67;83.80
71966;BME280;59836;52.132;5.442;2022-07-22T05:55:36;102192.00;;;16.68;84.36
71966;BME280;59836;52.132;5.442;2022-07-22T05:58:03;102188.16;;;16.69;84.71
71966;BME280;59836;52.132;5.442;2022-07-22T06:03:47;102192.53;;;16.70;84.33
71966;BME280;59836;52.132;5.442;2022-07-22T06:06:13;102191.72;;;16.70;84.17
71966;BME280;59836;52.132;5.442;2022-07-22T06:08:42;102189.00;;;16.70;84.62
71966;BME280;59836;52.132;5.442;2022-07-22T06:11:27;102190.34;;;16.67;84.37
71966;BME280;59836;52.132;5.442;2022-07-22T06:14:09;102197.47;;;16.68;84.19
71966;BME280;59836;52.132;5.442;2022-07-22T06:16:55;102196.91;;;16.71;84.55
71966;BME280;59836;52.132;5.442;2022-07-22T06:19:32;102193.09;;;16.72;83.77
71966;BME280;59836;52.132;5.442;2022-07-22T06:21:59;102193.09;;;16.72;83.41
71966;BME280;59836;52.132;5.442;2022-07-22T06:24:33;102185.94;;;16.76;83.97
71966;BME280;59836;52.132;5.442;2022-07-22T06:27:00;102191.72;;;16.80;84.63
71966;BME280;59836;52.132;5.442;2022-07-22T06:29:26;102192.25;;;16.82;84.72
71966;BME280;59836;52.132;5.442;2022-07-22T06:31:57;102201.81;;;16.85;84.41
71966;BME280;59836;52.132;5.442;2022-07-22T06:34:28;102187.56;;;16.82;83.10
71966;BME280;59836;52.132;5.442;2022-07-22T06:37:10;102191.41;;;16.81;80.76
71966;BME280;59836;52.132;5.442;2022-07-22T06:39:36;102193.06;;;16.82;83.43
71966;BME280;59836;52.132;5.442;2022-07-22T06:42:06;102193.88;;;16.83;83.64
71966;BME280;59836;52.132;5.442;2022-07-22T06:44:38;102191.97;;;16.83;81.42
71966;BME280;59836;52.132;5.442;2022-07-22T06:47:04;102186.22;;;16.85;82.20
71966;BME280;59836;52.132;5.442;2022-07-22T06:49:31;102187.00;;;16.86;82.20
71966;BME280;59836;52.132;5.442;2022-07-22T06:51:57;102188.69;;;16.81;82.07
71966;BME280;59836;52.132;5.442;2022-07-22T06:54:50;102188.13;;;16.85;83.02
71966;BME280;59836;52.132;5.442;2022-07-22T06:57:16;102182.94;;;16.83;81.68
71966;BME280;59836;52.132;5.442;2022-07-22T06:59:43;102184.84;;;16.82;82.14
71966;BME280;59836;52.132;5.442;2022-07-22T07:02:26;102193.03;;;16.88;82.82
71966;BME280;59836;52.132;5.442;2022-07-22T07:04:55;102185.91;;;16.92;82.20
71966;BME280;59836;52.132;5.442;2022-07-22T07:07:21;102186.44;;;16.94;80.84
71966;BME280;59836;52.132;5.442;2022-07-22T07:15:56;102190.25;;;17.08;78.63
71966;BME280;59836;52.132;5.442;2022-07-22T07:18:22;102185.00;;;17.12;79.33
71966;BME280;59836;52.132;5.442;2022-07-22T07:20:49;102184.47;;;17.10;81.40
71966;BME280;59836;52.132;5.442;2022-07-22T07:23:16;102185.34;;;17.05;79.91
71966;BME280;59836;52.132;5.442;2022-07-22T07:25:43;102194.13;;;17.02;81.20
71966;BME280;59836;52.132;5.442;2022-07-22T07:28:09;102186.69;;;17.03;81.82
71966;BME280;59836;52.132;5.442;2022-07-22T07:30:36;102182.59;;;17.00;78.93
71966;BME280;59836;52.132;5.442;2022-07-22T07:33:02;102185.34;;;17.05;78.99
71966;BME280;59836;52.132;5.442;2022-07-22T07:35:30;102181.50;;;17.06;76.61
71966;BME280;59836;52.132;5.442;2022-07-22T07:37:57;102185.56;;;17.09;77.43
71966;BME280;59836;52.132;5.442;2022-07-22T07:40:24;102190.22;;;17.14;76.53
71966;BME280;59836;52.132;5.442;2022-07-22T07:42:51;102183.69;;;17.04;74.92
71966;BME280;59836;52.132;5.442;2022-07-22T07:45:28;102192.75;;;17.00;76.65
71966;BME280;59836;52.132;5.442;2022-07-22T07:47:54;102185.34;;;16.95;75.36
71966;BME280;59836;52.132;5.442;2022-07-22T07:50:21;102188.66;;;16.97;75.88
71966;BME280;59836;52.132;5.442;2022-07-22T07:52:48;102196.59;;;16.99;77.67
71966;BME280;59836;52.132;5.442;2022-07-22T07:55:18;102189.72;;;16.96;76.87
71966;BME280;59836;52.132;5.442;2022-07-22T07:57:46;102190.81;;;16.95;78.93
71966;BME280;59836;52.132;5.442;2022-07-22T08:00:20;102194.13;;;16.97;77.22
71966;BME280;59836;52.132;5.442;2022-07-22T08:02:47;102191.94;;;16.99;78.77
71966;BME280;59836;52.132;5.442;2022-07-22T08:05:14;102190.81;;;17.05;78.73
71966;BME280;59836;52.132;5.442;2022-07-22T08:07:42;102192.69;;;17.10;76.71
71966;BME280;59836;52.132;5.442;2022-07-22T08:10:08;102194.09;;;17.07;75.60
71966;BME280;59836;52.132;5.442;2022-07-22T08:12:56;102190.25;;;17.08;77.22
71966;BME280;59836;52.132;5.442;2022-07-22T08:15:25;102196.25;;;17.16;77.50
71966;BME280;59836;52.132;5.442;2022-07-22T08:17:53;102196.78;;;17.18;77.65
71966;BME280;59836;52.132;5.442;2022-07-22T08:20:21;102194.31;;;17.16;73.46
71966;BME280;59836;52.132;5.442;2022-07-22T08:22:49;102196.78;;;17.18;76.87
71966;BME280;59836;52.132;5.442;2022-07-22T08:25:16;102198.44;;;17.19;73.72
71966;BME280;59836;52.132;5.442;2022-07-22T08:27:42;102190.78;;;17.16;75.96
71966;BME280;59836;52.132;5.442;2022-07-22T08:30:09;102196.50;;;17.19;75.74
71966;BME280;59836;52.132;5.442;2022-07-22T08:32:36;102190.75;;;17.21;75.18
71966;BME280;59836;52.132;5.442;2022-07-22T08:35:04;102190.44;;;17.22;74.65
71966;BME280;59836;52.132;5.442;2022-07-22T08:37:30;102192.38;;;17.27;76.22
71966;BME280;59836;52.132;5.442;2022-07-22T08:39:57;102189.59;;;17.32;73.56
71966;BME280;59836;52.132;5.442;2022-07-22T08:42:42;102188.19;;;17.35;73.35
71966;BME280;59836;52.132;5.442;2022-07-22T08:45:09;102180.78;;;17.40;76.12
71966;BME280;59836;52.132;5.442;2022-07-22T08:47:45;102183.22;;;17.42;73.88
71966;BME280;59836;52.132;5.442;2022-07-22T08:50:12;102182.94;;;17.44;72.63
71966;BME280;59836;52.132;5.442;2022-07-22T08:52:39;102179.03;;;17.50;69.30
71966;BME280;59836;52.132;5.442;2022-07-22T08:55:07;102180.94;;;17.54;69.27
71966;BME280;59836;52.132;5.442;2022-07-22T08:57:34;102176.81;;;17.57;73.67
71966;BME280;59836;52.132;5.442;2022-07-22T09:00:09;102174.34;;;17.61;72.13
71966;BME280;59836;52.132;5.442;2022-07-22T09:02:38;102161.44;;;17.56;70.74
71966;BME280;59836;52.132;5.442;2022-07-22T09:05:07;102181.16;;;17.63;72.44
71966;BME280;59836;52.132;5.442;2022-07-22T09:07:58;102166.00;;;17.76;72.12
71966;BME280;59836;52.132;5.442;2022-07-22T09:10:31;102169.97;;;17.94;70.48
71966;BME280;59836;52.132;5.442;2022-07-22T09:13:00;102159.34;;;18.17;67.55
71966;BME280;59836;52.132;5.442;2022-07-22T09:15:35;102154.81;;;18.32;65.63
71966;BME280;59836;52.132;5.442;2022-07-22T09:18:03;102152.50;;;18.44;65.08
71966;BME280;59836;52.132;5.442;2022-07-22T09:20:35;102153.41;;;18.58;63.97
71966;BME280;59836;52.132;5.442;2022-07-22T09:23:09;102148.34;;;18.71;64.57
71966;BME280;59836;52.132;5.442;2022-07-22T09:25:37;102138.69;;;18.73;65.57
71966;BME280;59836;52.132;5.442;2022-07-22T09:30:37;102144.94;;;18.79;65.53
71966;BME280;59836;52.132;5.442;2022-07-22T09:33:06;102151.78;;;18.82;64.82
71966;BME280;59836;52.132;5.442;2022-07-22T09:35:34;102160.56;;;18.84;64.29
71966;BME280;59836;52.132;5.442;2022-07-22T09:38:07;102159.78;;;18.78;62.33
71966;BME280;59836;52.132;5.442;2022-07-22T09:40:37;102166.50;;;18.67;65.70
71966;BME280;59836;52.132;5.442;2022-07-22T09:46:35;102164.66;;;18.62;64.05
71966;BME280;59836;52.132;5.442;2022-07-22T09:49:02;102160.13;;;18.52;63.06
71966;BME280;59836;52.132;5.442;2022-07-22T09:51:29;102161.81;;;18.48;65.14
71966;BME280;59836;52.132;5.442;2022-07-22T09:53:57;102153.19;;;18.55;65.78
71966;BME280;59836;52.132;5.442;2022-07-22T09:56:23;102154.53;;;18.57;68.32
71966;BME280;59836;52.132;5.442;2022-07-22T09:58:51;102155.88;;;18.60;65.41
71966;BME280;59836;52.132;5.442;2022-07-22T10:01:18;102156.13;;;18.64;65.56
71966;BME280;59836;52.132;5.442;2022-07-22T10:03:48;102156.38;;;18.67;63.51
71966;BME280;59836;52.132;5.442;2022-07-22T10:06:14;102149.56;;;18.59;62.57
71966;BME280;59836;52.132;5.442;2022-07-22T10:08:41;102150.03;;;18.67;66.40
71966;BME280;59836;52.132;5.442;2022-07-22T10:11:08;102158.81;;;18.69;67.62
71966;BME280;59836;52.132;5.442;2022-07-22T10:13:34;102167.03;;;18.69;64.15
71966;BME280;59836;52.132;5.442;2022-07-22T10:16:04;102163.72;;;18.72;66.85
71966;BME280;59836;52.132;5.442;2022-07-22T10:18:31;102162.00;;;18.76;68.79
71966;BME280;59836;52.132;5.442;2022-07-22T10:21:06;102168.03;;;18.78;66.92
71966;BME280;59836;52.132;5.442;2022-07-22T10:23:33;102169.47;;;18.76;70.11
71966;BME280;59836;52.132;5.442;2022-07-22T10:26:02;102170.84;;;18.73;65.60
71966;BME280;59836;52.132;5.442;2022-07-22T10:28:36;102170.25;;;18.76;64.62
71966;BME280;59836;52.132;5.442;2022-07-22T10:31:21;102162.53;;;18.78;64.67
71966;BME280;59836;52.132;5.442;2022-07-22T10:33:53;102164.19;;;18.79;64.85
71966;BME280;59836;52.132;5.442;2022-07-22T10:36:38;102157.03;;;18.78;64.41
71966;BME280;59836;52.132;5.442;2022-07-22T10:39:10;102160.84;;;18.82;65.83
71966;BME280;59836;52.132;5.442;2022-07-22T10:41:39;102167.75;;;18.80;63.23
71966;BME280;59836;52.132;5.442;2022-07-22T10:44:07;102158.09;;;18.82;67.39
71966;BME280;59836;52.132;5.442;2022-07-22T10:46:51;102146.97;;;18.93;68.58
71966;BME280;59836;52.132;5.442;2022-07-22T10:49:21;102148.56;;;18.99;62.42
71966;BME280;59836;52.132;5.442;2022-07-22T10:52:09;102150.72;;;19.02;63.88
71966;BME280;59836;52.132;5.442;2022-07-22T10:55:18;102152.25;;;19.13;64.25
71966;BME280;59836;52.132;5.442;2022-07-22T10:57:44;102158.13;;;19.26;64.87
71966;BME280;59836;52.132;5.442;2022-07-22T11:00:12;102168.53;;;19.29;65.10
71966;BME280;59836;52.132;5.442;2022-07-22T11:02:41;102159.69;;;19.32;61.70
71966;BME280;59836;52.132;5.442;2022-07-22T11:05:08;102167.88;;;19.37;64.95
71966;BME280;59836;52.132;5.442;2022-07-22T11:07:45;102155.66;;;19.43;66.38
71966;BME280;59836;52.132;5.442;2022-07-22T11:10:25;102155.06;;;19.46;65.10
71966;BME280;59836;52.132;5.442;2022-07-22T11:12:52;102147.94;;;19.45;60.88
71966;BME280;59836;52.132;5.442;2022-07-22T11:15:25;102150.00;;;19.54;64.00
71966;BME280;59836;52.132;5.442;2022-07-22T11:17:56;102143.31;;;19.60;63.37
71966;BME280;59836;52.132;5.442;2022-07-22T11:20:22;102147.50;;;19.71;66.19
71966;BME280;59836;52.132;5.442;2022-07-22T11:22:49;102135.81;;;19.80;63.90
71966;BME280;59836;52.132;5.442;2022-07-22T11:25:25;102124.44;;;19.86;62.64
71966;BME280;59836;52.132;5.442;2022-07-22T11:27:53;102135.97;;;19.88;66.02
71966;BME280;59836;52.132;5.442;2022-07-22T11:30:21;102127.94;;;19.92;60.16
71966;BME280;59836;52.132;5.442;2022-07-22T11:32:48;102131.03;;;20.04;59.55
71966;BME280;59836;52.132;5.442;2022-07-22T11:35:16;102112.69;;;20.14;60.28
71966;BME280;59836;52.132;5.442;2022-07-22T11:37:42;102118.19;;;20.14;60.02
71966;BME280;59836;52.132;5.442;2022-07-22T11:40:09;102123.50;;;20.10;59.21
71966;BME280;59836;52.132;5.442;2022-07-22T11:42:36;102128.59;;;20.03;60.25
71966;BME280;59836;52.132;5.442;2022-07-22T11:45:03;102139.59;;;19.84;58.48
71966;BME280;59836;52.132;5.442;2022-07-22T11:47:30;102132.13;;;19.70;62.14
71966;BME280;59836;52.132;5.442;2022-07-22T11:49:57;102132.72;;;19.67;63.99
71966;BME280;59836;52.132;5.442;2022-07-22T11:52:23;102133.91;;;19.61;60.51
71966;BME280;59836;52.132;5.442;2022-07-22T11:54:50;102117.41;;;19.61;60.45
71966;BME280;59836;52.132;5.442;2022-07-22T11:57:16;102113.53;;;19.62;62.10
71966;BME280;59836;52.132;5.442;2022-07-22T11:59:43;102107.44;;;19.65;59.20
71966;BME280;59836;52.132;5.442;2022-07-22T12:02:09;102106.31;;;19.66;65.05
71966;BME280;59836;52.132;5.442;2022-07-22T12:04:40;102090.53;;;19.72;64.56
71966;BME280;59836;52.132;5.442;2022-07-22T12:07:10;102098.91;;;19.81;62.97
71966;BME280;59836;52.132;5.442;2022-07-22T12:09:38;102097.50;;;19.83;63.27
71966;BME280;59836;52.132;5.442;2022-07-22T12:12:07;102085.94;;;20.00;61.36
71966;BME280;59836;52.132;5.442;2022-07-22T12:14:34;102088.59;;;20.05;59.49
71966;BME280;59836;52.132;5.442;2022-07-22T12:17:04;102085.75;;;20.11;60.12
71966;BME280;59836;52.132;5.442;2022-07-22T12:19:33;102078.41;;;20.20;56.92
71966;BME280;59836;52.132;5.442;2022-07-22T12:22:03;102069.94;;;20.30;57.70
71966;BME280;59836;52.132;5.442;2022-07-22T12:24:31;102069.75;;;20.41;56.24
71966;BME280;59836;52.132;5.442;2022-07-22T12:32:07;102067.59;;;20.38;59.75
71966;BME280;59836;52.132;5.442;2022-07-22T12:34:42;102064.94;;;20.32;58.87
71966;BME280;59836;52.132;5.442;2022-07-22T12:37:20;102070.66;;;20.22;59.17
71966;BME280;59836;52.132;5.442;2022-07-22T12:42:39;102061.06;;;20.19;58.48
71966;BME280;59836;52.132;5.442;2022-07-22T12:50:16;102066.78;;;20.23;57.63
71966;BME280;59836;52.132;5.442;2022-07-22T12:52:42;102063.31;;;20.31;55.93
71966;BME280;59836;52.132;5.442;2022-07-22T12:55:30;102056.69;;;20.32;57.52
71966;BME280;59836;52.132;5.442;2022-07-22T12:57:57;102059.00;;;20.39;57.34
71966;BME280;59836;52.132;5.442;2022-07-22T13:00:26;102064.34;;;20.35;54.46
71966;BME280;59836;52.132;5.442;2022-07-22T13:02:53;102062.38;;;20.22;55.40
71966;BME280;59836;52.132;5.442;2022-07-22T13:05:20;102061.88;;;20.20;57.80
71966;BME280;59836;52.132;5.442;2022-07-22T13:07:46;102057.50;;;20.19;57.85
71966;BME280;59836;52.132;5.442;2022-07-22T13:10:14;102058.00;;;20.21;55.79
71966;BME280;59836;52.132;5.442;2022-07-22T13:12:41;102066.97;;;20.13;57.85
71966;BME280;59836;52.132;5.442;2022-07-22T13:15:08;102054.53;;;20.15;57.46
71966;BME280;59836;52.132;5.442;2022-07-22T13:17:36;102065.75;;;20.19;59.33
71966;BME280;59836;52.132;5.442;2022-07-22T13:20:04;102057.59;;;20.14;57.66
71966;BME280;59836;52.132;5.442;2022-07-22T13:22:30;102049.94;;;20.11;56.08
71966;BME280;59836;52.132;5.442;2022-07-22T13:24:57;102051.06;;;20.10;60.47
71966;BME280;59836;52.132;5.442;2022-07-22T13:27:24;102036.78;;;20.08;59.33
71966;BME280;59836;52.132;5.442;2022-07-22T13:29:50;102032.91;;;20.09;58.49
71966;BME280;59836;52.132;5.442;2022-07-22T13:32:17;102045.78;;;20.13;59.40
71966;BME280;59836;52.132;5.442;2022-07-22T13:34:47;102040.25;;;20.13;56.59
71966;BME280;59836;52.132;5.442;2022-07-22T13:37:14;102035.97;;;20.21;56.23
71966;BME280;59836;52.132;5.442;2022-07-22T13:39:40;102035.97;;;20.21;55.28
71966;BME280;59836;52.132;5.442;2022-07-22T13:42:08;102038.81;;;20.16;58.32
71966;BME280;59836;52.132;5.442;2022-07-22T13:44:34;102045.44;;;20.15;56.00
71966;BME280;59836;52.132;5.442;2022-07-22T13:47:03;102046.16;;;20.20;56.99
71966;BME280;59836;52.132;5.442;2022-07-22T13:49:30;102051.06;;;20.24;60.53
71966;BME280;59836;52.132;5.442;2022-07-22T13:52:01;102044.41;;;20.25;57.83
71966;BME280;59836;52.132;5.442;2022-07-22T13:54:28;102047.28;;;20.19;56.15
71966;BME280;59836;52.132;5.442;2022-07-22T13:56:54;102043.91;;;20.09;61.30
71966;BME280;59836;52.132;5.442;2022-07-22T13:59:23;102046.88;;;19.98;62.40